Tipton, Oklahoma
Current Conditions -  °F | °C
As of 6:58 AM on Wednesday 22 Oct 2014 (Local Time) from KLTS Reporting Station
Clear Clear  
Wind Chill: 11°   Ceiling: Unl
Heat Index: 11°   Visibility: 10mi
Dew Point: 10°   Wind: 8mph
Humidity: 97%   Direction: 90°E
Pressure: 30.09"   Gusts: NA
Location:  34.5°N, 99.14°W
Report Text: KLTS 221158Z AUTO 09007KT 10SM CLR 11/10 A3009 RMK AO2 SLP183 T01070102 10157 20103 52008 $
Loading
Personal Weather Stations






























Interactive Weather Map
Tropical Storm Tracking
New forecast layout! Learn more

10-Day Weather Forecast

Advertisements
Track Severe Weather on mobile